createdAt,value
2019-01-12T00:00:32.866Z,-0.88
2019-01-12T00:05:29.797Z,-0.84
2019-01-12T00:10:26.982Z,-0.78
2019-01-12T00:15:23.888Z,-0.67
2019-01-12T00:20:20.851Z,-0.75
2019-01-12T00:25:17.761Z,-0.67
2019-01-12T00:30:14.925Z,-0.59
2019-01-12T00:35:11.883Z,-0.58
2019-01-12T00:40:09.118Z,-0.58
2019-01-12T00:45:10.397Z,-0.32
2019-01-12T00:50:12.177Z,-0.14
2019-01-12T00:55:09.283Z,-0.25
2019-01-12T01:00:17.060Z,-0.26
2019-01-12T01:10:32.360Z,-0.29
2019-01-12T01:15:29.286Z,0.01
2019-01-12T01:20:26.215Z,-0.30
2019-01-12T01:25:23.135Z,-0.12
2019-01-12T01:30:20.099Z,-0.03
2019-01-12T01:35:17.043Z,-0.14
2019-01-12T01:40:15.995Z,-0.45
2019-01-12T01:45:15.397Z,-0.35
2019-01-12T01:50:14.074Z,-0.51
2019-01-12T01:55:10.993Z,-0.53
2019-01-12T02:00:14.759Z,-0.50
2019-01-12T02:05:12.082Z,-0.38
2019-01-12T02:10:16.694Z,-0.45
2019-01-12T02:15:16.310Z,-0.57
2019-01-12T02:20:13.550Z,-0.49
2019-01-12T02:25:10.674Z,-0.48
2019-01-12T02:30:20.639Z,-0.51
2019-01-12T02:35:17.603Z,-1.39
2019-01-12T02:40:14.539Z,-1.13
2019-01-12T02:45:12.895Z,-0.95
2019-01-12T02:50:12.047Z,-1.17
2019-01-12T02:55:09.457Z,-1.06
2019-01-12T03:00:13.909Z,-0.86
2019-01-12T03:05:11.111Z,-1.17
2019-01-12T03:10:11.875Z,-0.92
2019-01-12T03:15:12.720Z,-0.88
2019-01-12T03:20:13.240Z,-0.92
2019-01-12T03:25:18.014Z,-0.71
2019-01-12T03:30:14.735Z,-0.74
2019-01-12T03:35:11.821Z,-0.92
2019-01-12T03:40:15.396Z,-0.88
2019-01-12T03:45:15.340Z,-0.69
2019-01-12T03:50:14.281Z,-0.58
2019-01-12T03:55:11.404Z,-0.44
2019-01-12T04:00:18.412Z,-0.63
2019-01-12T04:05:15.333Z,-0.58
2019-01-12T04:10:13.342Z,-0.56
2019-01-12T04:15:12.240Z,-0.48
2019-01-12T04:20:14.707Z,-0.57
2019-01-12T04:25:11.622Z,-0.53
2019-01-12T04:30:14.812Z,-0.52
2019-01-12T04:35:12.315Z,-0.36
2019-01-12T04:40:15.541Z,-0.40
2019-01-12T04:45:12.550Z,-0.39
2019-01-12T04:50:12.731Z,-0.44
2019-01-12T04:55:09.937Z,-0.45
2019-01-12T05:00:11.596Z,-0.25
2019-01-12T05:05:08.516Z,-0.33
2019-01-12T05:10:09.369Z,-0.21
2019-01-12T05:15:10.196Z,-0.25
2019-01-12T05:20:11.949Z,-0.15
2019-01-12T05:25:08.864Z,-0.06
2019-01-12T05:30:13.573Z,-0.04
2019-01-12T05:35:10.474Z,-0.04
2019-01-12T05:40:08.338Z,-0.04
2019-01-12T05:45:08.433Z,0.07
2019-01-12T05:50:09.017Z,-0.11
2019-01-12T05:55:07.623Z,-0.07
2019-01-12T06:00:17.745Z,0.03
2019-01-12T06:05:14.663Z,-0.18
2019-01-12T06:10:12.744Z,-0.14
2019-01-12T06:15:11.645Z,-0.08
2019-01-12T06:20:12.718Z,0.05
2019-01-12T06:25:09.661Z,0.03
2019-01-12T06:30:11.709Z,-0.04
2019-01-12T06:35:08.623Z,0.03
2019-01-12T06:40:10.179Z,0.00
2019-01-12T06:45:11.209Z,-0.03
2019-01-12T06:50:12.109Z,0.02
2019-01-12T06:55:09.621Z,0.08
2019-01-12T07:00:18.582Z,0.15
2019-01-12T07:05:15.682Z,-0.02
2019-01-12T07:10:14.449Z,0.04
2019-01-12T07:15:13.076Z,0.14
2019-01-12T07:20:15.347Z,0.24
2019-01-12T07:25:12.442Z,0.42
2019-01-12T07:30:14.542Z,0.52
2019-01-12T07:35:11.532Z,0.24
2019-01-12T07:40:09.610Z,0.39
2019-01-12T07:45:08.311Z,0.39
2019-01-12T07:50:11.556Z,0.77
2019-01-12T07:55:09.166Z,0.56
2019-01-12T08:00:15.578Z,0.38
2019-01-12T08:05:13.787Z,0.45
2019-01-12T08:10:15.278Z,0.41
2019-01-12T08:15:12.698Z,0.61
2019-01-12T08:20:10.351Z,0.70
2019-01-12T08:25:08.966Z,0.77
2019-01-12T08:30:13.271Z,0.86
2019-01-12T08:35:10.621Z,1.02
2019-01-12T08:40:10.419Z,1.10
2019-01-12T08:45:09.854Z,1.13
2019-01-12T08:50:11.709Z,1.24
2019-01-12T08:55:10.355Z,1.44
2019-01-12T09:00:17.974Z,1.32
2019-01-12T09:05:15.216Z,1.30
2019-01-12T09:10:15.583Z,1.33
2019-01-12T09:15:12.485Z,1.28
2019-01-12T09:20:12.801Z,1.55
2019-01-12T09:25:10.718Z,1.60
2019-01-12T09:30:12.491Z,1.68
2019-01-12T09:35:09.509Z,1.44
2019-01-12T09:40:11.938Z,1.98
2019-01-12T09:45:11.543Z,2.23
2019-01-12T09:50:15.262Z,2.00
2019-01-12T09:55:12.189Z,2.12
2019-01-12T10:00:20.384Z,2.33
2019-01-12T10:05:17.302Z,2.34
2019-01-12T10:10:19.711Z,2.55
2019-01-12T10:15:19.695Z,2.52
2019-01-12T10:20:32.438Z,2.33
2019-01-12T10:25:29.338Z,2.46
2019-01-12T10:30:28.618Z,2.51
2019-01-12T10:35:25.559Z,2.49
2019-01-12T10:40:23.531Z,2.60
2019-01-12T10:45:21.545Z,2.46
2019-01-12T10:50:23.367Z,2.22
2019-01-12T10:55:20.502Z,2.42
2019-01-12T11:00:25.167Z,2.48
2019-01-12T11:05:22.066Z,2.53
2019-01-12T11:10:19.306Z,2.24
2019-01-12T11:15:21.130Z,2.51
2019-01-12T11:20:18.144Z,2.73
2019-01-12T11:25:15.624Z,3.00
2019-01-12T11:30:16.665Z,3.09
2019-01-12T11:35:13.686Z,3.10
2019-01-12T11:40:15.703Z,3.18
2019-01-12T11:45:13.414Z,3.25
2019-01-12T11:50:13.425Z,3.10
2019-01-12T11:55:12.543Z,3.07
2019-01-12T12:00:20.197Z,3.12
2019-01-12T12:05:17.409Z,3.07
2019-01-12T12:10:16.386Z,3.22
2019-01-12T12:15:15.989Z,3.02
2019-01-12T12:20:20.312Z,3.02
2019-01-12T12:25:17.421Z,3.13
2019-01-12T12:30:21.375Z,3.07
2019-01-12T12:35:18.309Z,3.05
2019-01-12T12:40:18.698Z,2.99
2019-01-12T12:45:22.770Z,2.99
2019-01-12T12:50:19.777Z,2.90
2019-01-12T12:55:18.027Z,2.90
2019-01-12T13:00:19.512Z,2.84
2019-01-12T13:05:16.650Z,2.88
2019-01-12T13:10:17.951Z,2.80
2019-01-12T13:15:15.314Z,2.76
2019-01-12T13:20:16.205Z,2.85
2019-01-12T13:25:14.830Z,2.59
2019-01-12T13:30:20.047Z,2.60
2019-01-12T13:35:17.088Z,2.68
2019-01-12T13:40:21.751Z,2.62
2019-01-12T13:45:20.009Z,2.41
2019-01-12T13:50:20.366Z,2.56
2019-01-12T13:55:17.284Z,2.36
2019-01-12T14:00:27.721Z,2.38
2019-01-12T14:05:24.677Z,2.33
2019-01-12T14:10:23.550Z,2.21
2019-01-12T14:15:20.770Z,2.18
2019-01-12T14:20:27.647Z,2.29
2019-01-12T14:25:24.905Z,2.17
2019-01-12T14:30:21.863Z,2.19
2019-01-12T14:35:18.962Z,2.23
2019-01-12T14:40:20.162Z,1.90
2019-01-12T14:45:22.107Z,1.89
2019-01-12T14:50:19.422Z,1.98
2019-01-12T14:55:19.452Z,1.92
2019-01-12T15:00:25.423Z,1.96
2019-01-12T15:05:25.396Z,1.88
2019-01-12T15:10:22.408Z,1.96
2019-01-12T15:15:19.875Z,2.02
2019-01-12T15:20:25.796Z,1.86
2019-01-12T15:25:22.719Z,1.88
2019-01-12T15:30:23.721Z,1.94
2019-01-12T15:35:24.175Z,1.97
2019-01-12T15:40:22.215Z,1.91
2019-01-12T15:45:24.755Z,1.96
2019-01-12T15:50:24.192Z,2.00
2019-01-12T15:55:21.491Z,1.94
2019-01-12T16:00:27.663Z,1.92
2019-01-12T16:05:24.675Z,1.96
2019-01-12T16:10:21.639Z,1.90
2019-01-12T16:15:21.501Z,2.02
2019-01-12T16:20:31.582Z,1.94
2019-01-12T16:25:28.493Z,2.02
2019-01-12T16:30:25.460Z,1.80
2019-01-12T16:35:22.363Z,1.83
2019-01-12T16:40:22.738Z,1.87
2019-01-12T16:45:19.739Z,2.06
2019-01-12T16:50:17.850Z,2.21
2019-01-12T16:55:16.712Z,2.11
2019-01-12T17:00:24.142Z,2.09
2019-01-12T17:05:21.749Z,2.11
2019-01-12T17:10:21.320Z,2.17
2019-01-12T17:15:20.562Z,2.07
2019-01-12T17:20:23.324Z,2.02
2019-01-12T17:25:20.621Z,2.22
2019-01-12T17:30:23.499Z,2.03
2019-01-12T17:35:20.831Z,2.04
2019-01-12T17:40:18.059Z,2.00
2019-01-12T17:45:20.041Z,2.11
2019-01-12T17:50:20.141Z,2.01
2019-01-12T17:55:21.318Z,2.00
2019-01-12T18:00:31.413Z,2.09
2019-01-12T18:05:28.330Z,2.05
2019-01-12T18:10:25.303Z,1.95
2019-01-12T18:15:23.650Z,1.95
2019-01-12T18:20:20.692Z,1.98
2019-01-12T18:25:18.022Z,1.92
2019-01-12T18:30:23.851Z,1.83
2019-01-12T18:35:21.052Z,2.00
2019-01-12T18:40:19.996Z,2.01
2019-01-12T18:45:19.292Z,2.02
2019-01-12T18:50:20.128Z,2.02
2019-01-12T18:55:17.406Z,2.00
2019-01-12T19:00:23.551Z,2.19
2019-01-12T19:05:20.471Z,2.12
2019-01-12T19:10:17.713Z,2.06
2019-01-12T19:15:22.380Z,2.03
2019-01-12T19:20:20.020Z,1.89
2019-01-12T19:25:17.472Z,1.81
2019-01-12T19:30:19.804Z,1.81
2019-01-12T19:35:17.119Z,1.76
2019-01-12T19:40:17.515Z,1.80
2019-01-12T19:45:15.534Z,1.68
2019-01-12T19:50:22.161Z,1.80
2019-01-12T19:55:20.131Z,1.71
2019-01-12T20:00:22.443Z,1.80
2019-01-12T20:10:36.243Z,1.74
2019-01-12T20:15:33.155Z,1.53
2019-01-12T20:20:30.310Z,1.57
2019-01-12T20:25:27.528Z,1.43
2019-01-12T20:31:06.687Z,1.41
2019-01-12T20:36:20.750Z,1.28
2019-01-12T20:41:29.256Z,1.36
2019-01-12T20:46:43.470Z,1.07
2019-01-12T20:51:59.069Z,1.12
2019-01-12T20:57:20.875Z,0.86
2019-01-12T21:02:35.243Z,0.77
2019-01-12T21:07:40.715Z,0.75
2019-01-12T21:12:51.999Z,0.49
2019-01-12T21:17:48.931Z,0.75
2019-01-12T21:22:45.888Z,0.81
2019-01-12T21:27:42.818Z,1.03
2019-01-12T21:32:39.765Z,1.13
2019-01-12T21:37:37.106Z,0.93
2019-01-12T21:42:34.074Z,0.91
2019-01-12T21:47:30.970Z,1.03
2019-01-12T21:52:27.965Z,1.11
2019-01-12T21:57:24.889Z,1.17
2019-01-12T22:02:21.862Z,1.31
2019-01-12T22:07:18.788Z,1.37
2019-01-12T22:12:15.749Z,1.37
2019-01-12T22:17:12.753Z,1.54
2019-01-12T22:22:09.749Z,1.46
2019-01-12T22:27:06.666Z,1.49
2019-01-12T22:32:03.718Z,1.50
2019-01-12T22:37:00.667Z,1.40
2019-01-12T22:41:57.624Z,1.36
2019-01-12T22:46:54.536Z,1.25
2019-01-12T22:51:51.485Z,1.47
2019-01-12T22:56:48.645Z,1.48
2019-01-12T23:01:46.815Z,1.64
2019-01-12T23:06:43.718Z,1.41
2019-01-12T23:11:40.716Z,1.21
2019-01-12T23:16:37.630Z,1.17
2019-01-12T23:21:34.580Z,1.26
2019-01-12T23:26:31.617Z,1.28
2019-01-12T23:31:28.546Z,1.23
2019-01-12T23:36:25.464Z,1.43
2019-01-12T23:41:22.406Z,1.31
2019-01-12T23:46:19.312Z,1.24
2019-01-12T23:51:16.482Z,1.20
2019-01-12T23:56:13.418Z,1.20
